LVIRU SAZM-SABE
Flight info
| Callsign | LVIRU |
|---|---|
| Flight time | 0h 35m |
| Altitude | 24000 |
| Route | SABE DCT GBE W29 VOTRA DCT SAZM |
| Aircraft | LJ35/L-S/C |
Departure
| Time | 2026-05-07 23:54 |
|---|---|
| Airport | Ástor Piazzola International Airport (SAZM) |
Arrival
| Time | 2026-05-08 00:29 |
|---|---|
| Airport | Aeroparque Jorge Newbery (SABE) |
| Time | Latitude | Longitude | Altitude | Speed | Heading |
|---|---|---|---|---|---|
| 2026-05-07 23:32 | -37.93420 | -57.57968 | 48 ft | 0 kts | 305° |
| 2026-05-07 23:49 | -37.93419 | -57.57970 | 48 ft | 2 kts | 322° |
| 2026-05-07 23:49 | -37.93417 | -57.57902 | 48 ft | 18 kts | 127° |
| 2026-05-07 23:50 | -37.93508 | -57.57699 | 48 ft | 35 kts | 118° |
| 2026-05-07 23:50 | -37.93649 | -57.57372 | 48 ft | 50 kts | 119° |
| 2026-05-07 23:50 | -37.93843 | -57.56930 | 48 ft | 64 kts | 121° |
| 2026-05-07 23:50 | -37.94024 | -57.56516 | 48 ft | 22 kts | 106° |
| 2026-05-07 23:51 | -37.94029 | -57.56455 | 48 ft | 7 kts | 72° |
| 2026-05-07 23:51 | -37.94007 | -57.56398 | 47 ft | 0 kts | 63° |
| 2026-05-07 23:53 | -37.93990 | -57.56359 | 47 ft | 14 kts | 56° |
| 2026-05-07 23:53 | -37.93904 | -57.56377 | 47 ft | 15 kts | 301° |
| 2026-05-07 23:54 | -37.93750 | -57.56677 | 49 ft | 84 kts | 303° |
| 2026-05-07 23:54 | -37.93274 | -57.57633 | 100 ft | 165 kts | 301° |
| 2026-05-07 23:54 | -37.92559 | -57.59075 | 425 ft | 220 kts | 300° |
| 2026-05-07 23:54 | -37.91657 | -57.60816 | 1167 ft | 236 kts | 299° |
| 2026-05-07 23:55 | -37.90894 | -57.62488 | 3051 ft | 212 kts | 295° |
| 2026-05-07 23:55 | -37.90154 | -57.64137 | 4447 ft | 225 kts | 298° |
| 2026-05-07 23:55 | -37.89293 | -57.65919 | 5606 ft | 249 kts | 300° |
| 2026-05-07 23:55 | -37.88357 | -57.67819 | 6968 ft | 256 kts | 301° |
| 2026-05-07 23:56 | -37.87412 | -57.69756 | 8513 ft | 260 kts | 301° |
| 2026-05-07 23:56 | -37.86342 | -57.71638 | 9947 ft | 267 kts | 315° |
| 2026-05-07 23:56 | -37.84862 | -57.73042 | 11357 ft | 271 kts | 331° |
| 2026-05-07 23:56 | -37.83083 | -57.73848 | 12850 ft | 275 kts | 348° |
| 2026-05-07 23:57 | -37.81154 | -57.74060 | 14176 ft | 283 kts | 356° |
| 2026-05-07 23:57 | -37.79055 | -57.74131 | 14528 ft | 324 kts | 358° |
| 2026-05-07 23:57 | -37.76639 | -57.74191 | 14536 ft | 367 kts | 357° |
| 2026-05-07 23:57 | -37.74044 | -57.74299 | 14541 ft | 382 kts | 357° |
| 2026-05-07 23:58 | -37.71384 | -57.74428 | 14533 ft | 382 kts | 357° |
| 2026-05-07 23:58 | -37.68729 | -57.74542 | 14532 ft | 381 kts | 357° |
| 2026-05-07 23:58 | -37.66078 | -57.74648 | 14527 ft | 381 kts | 357° |
| 2026-05-07 23:58 | -37.63429 | -57.74760 | 14527 ft | 380 kts | 357° |
| 2026-05-07 23:59 | -37.60781 | -57.74874 | 14524 ft | 380 kts | 357° |
| 2026-05-07 23:59 | -37.58139 | -57.74986 | 14525 ft | 379 kts | 357° |
| 2026-05-07 23:59 | -37.55505 | -57.75097 | 14521 ft | 389 kts | 357° |
| 2026-05-07 23:59 | -37.52738 | -57.75215 | 14524 ft | 405 kts | 357° |
| 2026-05-08 00:00 | -37.49875 | -57.75335 | 14523 ft | 414 kts | 357° |
| 2026-05-08 00:00 | -37.46985 | -57.75457 | 14527 ft | 418 kts | 357° |
| 2026-05-08 00:00 | -37.44008 | -57.75583 | 14525 ft | 438 kts | 357° |
| 2026-05-08 00:00 | -37.40946 | -57.75713 | 14528 ft | 453 kts | 357° |
| 2026-05-08 00:01 | -37.37787 | -57.75844 | 14524 ft | 450 kts | 357° |
| 2026-05-08 00:01 | -37.34670 | -57.75974 | 14525 ft | 443 kts | 357° |
| 2026-05-08 00:01 | -37.31603 | -57.76103 | 14525 ft | 438 kts | 357° |
| 2026-05-08 00:01 | -37.28564 | -57.76232 | 14522 ft | 434 kts | 357° |
| 2026-05-08 00:02 | -37.25596 | -57.76357 | 14527 ft | 431 kts | 357° |
| 2026-05-08 00:02 | -37.22603 | -57.76481 | 14531 ft | 429 kts | 357° |
| 2026-05-08 00:02 | -37.19617 | -57.76607 | 14531 ft | 427 kts | 357° |
| 2026-05-08 00:02 | -37.16642 | -57.76731 | 14529 ft | 426 kts | 357° |
| 2026-05-08 00:03 | -37.13676 | -57.76855 | 14527 ft | 425 kts | 357° |
| 2026-05-08 00:03 | -37.10717 | -57.76979 | 14531 ft | 425 kts | 357° |
| 2026-05-08 00:03 | -37.07792 | -57.77101 | 14535 ft | 424 kts | 357° |
| 2026-05-08 00:03 | -37.04842 | -57.77224 | 14531 ft | 424 kts | 357° |
| 2026-05-08 00:04 | -37.01889 | -57.77347 | 14531 ft | 423 kts | 357° |
| 2026-05-08 00:04 | -36.98935 | -57.77470 | 14531 ft | 423 kts | 357° |
| 2026-05-08 00:04 | -36.96025 | -57.77592 | 14534 ft | 423 kts | 357° |
| 2026-05-08 00:04 | -36.93073 | -57.77714 | 14533 ft | 423 kts | 357° |
| 2026-05-08 00:05 | -36.90131 | -57.77836 | 14531 ft | 422 kts | 357° |
| 2026-05-08 00:05 | -36.88184 | -57.77917 | 14534 ft | 422 kts | 357° |
| 2026-05-08 00:05 | -36.85245 | -57.78039 | 14530 ft | 422 kts | 357° |
| 2026-05-08 00:05 | -36.81345 | -57.78201 | 14533 ft | 422 kts | 357° |
| 2026-05-08 00:06 | -36.79360 | -57.78283 | 14533 ft | 421 kts | 357° |
| 2026-05-08 00:06 | -36.76467 | -57.78402 | 14534 ft | 421 kts | 357° |
| 2026-05-08 00:06 | -36.73533 | -57.78525 | 14535 ft | 421 kts | 357° |
| 2026-05-08 00:06 | -36.69646 | -57.78685 | 14531 ft | 421 kts | 357° |
| 2026-05-08 00:07 | -36.67697 | -57.78765 | 14533 ft | 421 kts | 357° |
| 2026-05-08 00:07 | -36.64759 | -57.78887 | 14531 ft | 420 kts | 357° |
| 2026-05-08 00:07 | -36.61827 | -57.79008 | 14531 ft | 420 kts | 357° |
| 2026-05-08 00:07 | -36.58901 | -57.79128 | 14530 ft | 420 kts | 357° |
| 2026-05-08 00:08 | -36.56004 | -57.79248 | 14536 ft | 419 kts | 358° |
| 2026-05-08 00:08 | -36.53084 | -57.79368 | 14534 ft | 419 kts | 357° |
| 2026-05-08 00:08 | -36.50161 | -57.79488 | 14537 ft | 419 kts | 358° |
| 2026-05-08 00:08 | -36.47237 | -57.79608 | 14541 ft | 419 kts | 358° |
| 2026-05-08 00:09 | -36.44365 | -57.79726 | 14540 ft | 418 kts | 358° |
| 2026-05-08 00:09 | -36.41448 | -57.79845 | 14544 ft | 418 kts | 357° |
| 2026-05-08 00:09 | -36.38533 | -57.79966 | 14545 ft | 418 kts | 357° |
| 2026-05-08 00:09 | -36.35653 | -57.80083 | 14543 ft | 418 kts | 358° |
| 2026-05-08 00:10 | -36.32744 | -57.80202 | 14542 ft | 417 kts | 357° |
| 2026-05-08 00:10 | -36.29828 | -57.80322 | 14547 ft | 417 kts | 357° |
| 2026-05-08 00:10 | -36.26925 | -57.80440 | 14549 ft | 417 kts | 357° |
| 2026-05-08 00:10 | -36.24027 | -57.80559 | 14549 ft | 417 kts | 357° |
| 2026-05-08 00:11 | -36.21157 | -57.80676 | 14547 ft | 417 kts | 357° |
| 2026-05-08 00:11 | -36.18222 | -57.80806 | 14551 ft | 416 kts | 357° |
| 2026-05-08 00:11 | -36.15362 | -57.80939 | 14548 ft | 416 kts | 357° |
| 2026-05-08 00:11 | -36.12461 | -57.81052 | 14550 ft | 416 kts | 358° |
| 2026-05-08 00:12 | -36.09566 | -57.81160 | 14553 ft | 417 kts | 358° |
| 2026-05-08 00:12 | -36.06660 | -57.81279 | 14552 ft | 416 kts | 357° |
| 2026-05-08 00:12 | -36.03763 | -57.81400 | 14553 ft | 417 kts | 357° |
| 2026-05-08 00:12 | -36.00862 | -57.81516 | 14555 ft | 417 kts | 358° |
| 2026-05-08 00:13 | -35.97957 | -57.81632 | 14554 ft | 417 kts | 357° |
| 2026-05-08 00:13 | -35.95056 | -57.81749 | 14557 ft | 417 kts | 357° |
| 2026-05-08 00:13 | -35.92153 | -57.81866 | 14556 ft | 417 kts | 358° |
| 2026-05-08 00:13 | -35.89292 | -57.81981 | 14556 ft | 417 kts | 357° |
| 2026-05-08 00:14 | -35.86391 | -57.82097 | 14555 ft | 417 kts | 358° |
| 2026-05-08 00:14 | -35.83480 | -57.82214 | 14561 ft | 417 kts | 358° |
| 2026-05-08 00:14 | -35.80577 | -57.82331 | 14565 ft | 417 kts | 358° |
| 2026-05-08 00:14 | -35.77670 | -57.82447 | 14565 ft | 417 kts | 357° |
| 2026-05-08 00:15 | -35.74794 | -57.82563 | 14564 ft | 417 kts | 358° |
| 2026-05-08 00:15 | -35.71893 | -57.82679 | 14561 ft | 417 kts | 358° |
| 2026-05-08 00:15 | -35.68980 | -57.82796 | 14564 ft | 417 kts | 358° |
| 2026-05-08 00:15 | -35.66071 | -57.82911 | 14566 ft | 417 kts | 357° |
| 2026-05-08 00:16 | -35.63165 | -57.83028 | 14567 ft | 417 kts | 357° |
| 2026-05-08 00:16 | -35.60290 | -57.83142 | 14565 ft | 417 kts | 357° |
| 2026-05-08 00:16 | -35.57379 | -57.83259 | 14570 ft | 417 kts | 357° |
| 2026-05-08 00:16 | -35.54464 | -57.83376 | 14571 ft | 417 kts | 357° |
| 2026-05-08 00:17 | -35.51608 | -57.83663 | 14568 ft | 417 kts | 354° |
| 2026-05-08 00:17 | -35.48718 | -57.84017 | 14577 ft | 417 kts | 354° |
| 2026-05-08 00:17 | -35.45827 | -57.84348 | 14578 ft | 417 kts | 354° |
| 2026-05-08 00:17 | -35.42925 | -57.84668 | 14576 ft | 417 kts | 354° |
| 2026-05-08 00:18 | -35.40029 | -57.84999 | 14578 ft | 417 kts | 354° |
| 2026-05-08 00:18 | -35.37131 | -57.85335 | 14579 ft | 418 kts | 354° |
| 2026-05-08 00:18 | -35.34268 | -57.85663 | 14579 ft | 418 kts | 354° |
| 2026-05-08 00:18 | -35.31372 | -57.85992 | 14582 ft | 418 kts | 354° |
| 2026-05-08 00:19 | -35.28463 | -57.86323 | 14588 ft | 418 kts | 354° |
| 2026-05-08 00:19 | -35.25559 | -57.86655 | 14592 ft | 418 kts | 354° |
| 2026-05-08 00:19 | -35.22694 | -57.86982 | 14596 ft | 418 kts | 354° |
| 2026-05-08 00:19 | -35.19784 | -57.87314 | 14602 ft | 418 kts | 354° |
| 2026-05-08 00:20 | -35.16886 | -57.87642 | 14606 ft | 418 kts | 354° |
| 2026-05-08 00:20 | -35.13979 | -57.87974 | 14612 ft | 418 kts | 354° |
| 2026-05-08 00:20 | -35.11107 | -57.88300 | 14617 ft | 419 kts | 354° |
| 2026-05-08 00:20 | -35.08202 | -57.88630 | 14617 ft | 419 kts | 354° |
| 2026-05-08 00:21 | -35.05280 | -57.88961 | 14617 ft | 419 kts | 354° |
| 2026-05-08 00:21 | -35.02375 | -57.89291 | 14620 ft | 419 kts | 354° |
| 2026-05-08 00:21 | -34.99526 | -57.89885 | 14618 ft | 419 kts | 344° |
| 2026-05-08 00:21 | -34.96796 | -57.91125 | 14619 ft | 419 kts | 335° |
| 2026-05-08 00:22 | -34.94286 | -57.92956 | 14621 ft | 420 kts | 325° |
| 2026-05-08 00:22 | -34.91993 | -57.95126 | 14623 ft | 421 kts | 323° |
| 2026-05-08 00:22 | -34.89675 | -57.97315 | 14621 ft | 419 kts | 323° |
| 2026-05-08 00:22 | -34.87483 | -57.99381 | 14621 ft | 375 kts | 323° |
| 2026-05-08 00:23 | -34.85480 | -58.01274 | 13199 ft | 364 kts | 323° |
| 2026-05-08 00:23 | -34.83492 | -58.03144 | 11688 ft | 361 kts | 323° |
| 2026-05-08 00:23 | -34.81525 | -58.04998 | 10319 ft | 352 kts | 322° |
| 2026-05-08 00:23 | -34.79600 | -58.06812 | 8926 ft | 346 kts | 321° |
| 2026-05-08 00:24 | -34.77734 | -58.08567 | 7517 ft | 340 kts | 320° |
| 2026-05-08 00:24 | -34.75869 | -58.10320 | 6127 ft | 337 kts | 319° |
| 2026-05-08 00:24 | -34.74018 | -58.12067 | 4674 ft | 335 kts | 318° |
| 2026-05-08 00:24 | -34.72177 | -58.13797 | 3287 ft | 333 kts | 317° |
| 2026-05-08 00:25 | -34.70511 | -58.15571 | 2975 ft | 296 kts | 307° |
| 2026-05-08 00:25 | -34.69346 | -58.17430 | 2986 ft | 257 kts | 298° |
| 2026-05-08 00:25 | -34.68403 | -58.19136 | 2982 ft | 230 kts | 298° |
| 2026-05-08 00:25 | -34.67524 | -58.20707 | 2986 ft | 224 kts | 297° |
| 2026-05-08 00:26 | -34.66662 | -58.22267 | 2991 ft | 220 kts | 297° |
| 2026-05-08 00:26 | -34.65814 | -58.23798 | 2989 ft | 216 kts | 297° |
| 2026-05-08 00:26 | -34.64980 | -58.25302 | 2992 ft | 213 kts | 297° |
| 2026-05-08 00:26 | -34.64135 | -58.26830 | 2755 ft | 221 kts | 297° |
| 2026-05-08 00:27 | -34.63261 | -58.28407 | 2469 ft | 229 kts | 297° |
| 2026-05-08 00:27 | -34.62367 | -58.30013 | 2167 ft | 234 kts | 298° |
| 2026-05-08 00:27 | -34.61452 | -58.31653 | 1851 ft | 233 kts | 298° |
| 2026-05-08 00:27 | -34.60544 | -58.33281 | 1529 ft | 232 kts | 299° |
| 2026-05-08 00:28 | -34.59647 | -58.34891 | 1205 ft | 228 kts | 299° |
| 2026-05-08 00:28 | -34.58765 | -58.36460 | 895 ft | 220 kts | 300° |
| 2026-05-08 00:28 | -34.57980 | -58.37866 | 608 ft | 182 kts | 300° |
| 2026-05-08 00:28 | -34.57305 | -58.39067 | 391 ft | 162 kts | 300° |
| 2026-05-08 00:29 | -34.56713 | -58.40170 | 126 ft | 156 kts | 303° |
| 2026-05-08 00:29 | -34.56127 | -58.41205 | 23 ft | 137 kts | 304° |
| 2026-05-08 00:29 | -34.55649 | -58.42082 | 22 ft | 104 kts | 304° |
| 2026-05-08 00:29 | -34.55403 | -58.42517 | 21 ft | 9 kts | 308° |
| 2026-05-08 00:30 | -34.55396 | -58.42527 | 21 ft | 3 kts | 329° |
| 2026-05-08 00:30 | -34.55361 | -58.42466 | 21 ft | 15 kts | 84° |
| 2026-05-08 00:30 | -34.55383 | -58.42353 | 21 ft | 17 kts | 122° |
| 2026-05-08 00:30 | -34.55464 | -58.42216 | 21 ft | 22 kts | 127° |
| 2026-05-08 00:31 | -34.55560 | -58.42061 | 21 ft | 24 kts | 127° |
| 2026-05-08 00:31 | -34.55590 | -58.42010 | 21 ft | 0 kts | 126° |
| 2026-05-08 00:31 | -34.55597 | -58.41998 | 23 ft | 8 kts | 126° |
| 2026-05-08 00:31 | -34.55670 | -58.41872 | 21 ft | 29 kts | 126° |
| 2026-05-08 00:32 | -34.55788 | -58.41620 | 21 ft | 37 kts | 117° |
| 2026-05-08 00:32 | -34.55904 | -58.41347 | 21 ft | 26 kts | 116° |
| 2026-05-08 00:32 | -34.56008 | -58.41160 | 21 ft | 28 kts | 127° |
| 2026-05-08 00:32 | -34.56085 | -58.41035 | 23 ft | 0 kts | 128° |
| 2026-05-08 00:33 | -34.56097 | -58.41028 | 21 ft | 4 kts | 136° |
| 2026-05-08 00:33 | -34.56151 | -58.40966 | 21 ft | 0 kts | 217° |
| 2026-05-08 00:35 | -34.56168 | -58.40987 | 21 ft | 10 kts | 227° |
| 2026-05-08 00:35 | -34.56222 | -58.41041 | 22 ft | 1 kts | 197° |
| 2026-05-08 00:35 | -34.56256 | -58.41120 | 21 ft | 18 kts | 217° |
| 2026-05-08 00:36 | -34.56266 | -58.41129 | 21 ft | 0 kts | 218° |
| 2026-05-08 00:36 | -34.56297 | -58.41157 | 21 ft | 12 kts | 215° |
| 2026-05-08 00:36 | -34.56384 | -58.41090 | 24 ft | 20 kts | 123° |
| 2026-05-08 00:36 | -34.56452 | -58.40970 | 21 ft | 13 kts | 125° |
| 2026-05-08 00:37 | -34.56464 | -58.40923 | 21 ft | 2 kts | 32° |
| 2026-05-08 00:37 | -34.56458 | -58.40919 | 21 ft | 0 kts | 34° |